Houston, TX

9:27 AM CDT en Abril 25, 2015 (GMT -0500)
SE-Svc-Cntr | | Change Station
CLOSE
Current Station
Estación meteorológica personal
Location: Houston, TX
Altura: 46 ft
Estaciones meteorológicas cercanas
Aviso en curso: Severe Thunderstorm Watch Aviso activo: Local Storm Report

Alt 46 ft 29.71 °N, 95.26 °W | Updated 9 seconds ago

Lluvia
Lluvia
67.3 ° F
Sensación térmica 67.3 ° F
N
0.0
Viento Variable Viento desde OSO
Gusts 1.0 mph

Hoy
Alta -- | Baja -- ° F
--% Posibilidad de precipitaciones
Ayer
Alta -- | Baja -- ° F
Precip. -- pul
6:44 AM 7:53 PM
Creciente, 46% visible
Presión 29.83 pul
Visibilidad 10.0 Millas
Nubes Muy nublado 4400 ft
Punto de rocío 67 ° F
Humedad 100%
Precipitaciones 0.00 pul
Espesor de la nieve No disponible.
UV 2 de una escala de 12
Polen 7.90 de una escala de 12
Calidad del aire No disponible.
Flu Activity Local Activity
SPECI KHOU 251408Z 00000KT 10SM TS BKN044CB 20/18 A2983 RMK AO2 TSB04RAE1355 FRQ LTGICCGCA S-SW TS S-SW MOV NE P0000

More Conditions Fewer Conditions

Presión 29.83 pul
Visibilidad 10.0 Millas
Nubes Muy nublado 4400 ft
Punto de rocío 67 ° F
Humedad 100%
Precipitaciones 0.00 pul
Espesor de la nieve No disponible.
UV 2 de una escala de 12
Polen 7.90 de una escala de 12
Calidad del aire No disponible.
Flu Activity Local Activity
SPECI KHOU 251408Z 00000KT 10SM TS BKN044CB 20/18 A2983 RMK AO2 TSB04RAE1355 FRQ LTGICCGCA S-SW TS S-SW MOV NE P0000

More Conditions Fewer Conditions

10-Day Weather Forecast

Almanac

Astronomía

Apr. 25, 2015 Salida Puesta
Hora real
Crepúsculo civil
Crepúsculo náutico
Crepúsculo astronómico
Luna
Horas de luz
Horas de luz
Tomorrow will be .
, % of the Moon is Illuminated

Extremos de hoy

Máximos del estado Bajos del estado

Community

WunderPhotos

Upload Photos

1,816,686 ¡fotos cargadas!

WunderBlogs® & News

Nearby

Calidad del aire

  Calidad del aire Índice AQ Contaminante
Not available.

Grosos de nieve

Estación Profundido Altura

Actividad de terremotos

Ciudad Distance Mag. Tiempo y dato
Magnitud mínima muestra es 2,5.

Temperaturas de aguas costeras

Lugar Temperatura

Stations

Estaciones meteorológicas cercanas

Ubicación de la estación Temp. Vientos helados Punto de rocío Humedad Viento Precip. Alt Actualizado Tipo
                   
Severe Thunderstorm Watch
Statement as of 9:24 AM CDT en Abril 25, 2015

Severe Thunderstorm Watch 109 remains in effect until 100 PM CDT

TX
. Texas counties included are

Brazoria Chambers Fort Bend
Galveston Hardin Harris
Jasper Jefferson Liberty
Matagorda Montgomery Newton
Orange Waller